createdAt,value
2019-03-22T00:00:48.363Z,0
2019-03-22T00:01:49.752Z,0
2019-03-22T00:02:51.445Z,0
2019-03-22T00:03:52.841Z,0
2019-03-22T00:04:54.526Z,0
2019-03-22T00:05:55.921Z,0
2019-03-22T00:06:57.614Z,0
2019-03-22T00:07:59.011Z,0
2019-03-22T00:09:00.405Z,0
2019-03-22T00:10:01.933Z,0
2019-03-22T00:11:03.371Z,0
2019-03-22T00:12:04.753Z,0
2019-03-22T00:13:06.256Z,0
2019-03-22T00:14:07.654Z,0
2019-03-22T00:15:09.340Z,0
2019-03-22T00:16:10.735Z,0
2019-03-22T00:17:12.435Z,0
2019-03-22T00:18:13.830Z,0
2019-03-22T00:19:15.226Z,0
2019-03-22T00:20:16.756Z,0
2019-03-22T00:21:18.145Z,0
2019-03-22T00:22:19.546Z,0
2019-03-22T00:23:21.070Z,0
2019-03-22T00:24:22.470Z,0
2019-03-22T00:25:23.866Z,0
2019-03-22T00:26:25.390Z,0
2019-03-22T00:27:26.793Z,0
2019-03-22T00:28:28.185Z,0
2019-03-22T00:29:29.716Z,0
2019-03-22T00:30:31.116Z,0
2019-03-22T00:31:32.516Z,0
2019-03-22T00:32:34.033Z,0
2019-03-22T00:33:35.428Z,0
2019-03-22T00:34:36.821Z,0
2019-03-22T00:35:38.353Z,0
2019-03-22T00:36:39.749Z,0
2019-03-22T00:37:41.143Z,0
2019-03-22T00:38:43.081Z,0
2019-03-22T00:39:44.473Z,0
2019-03-22T00:40:45.966Z,0
2019-03-22T00:41:47.364Z,0
2019-03-22T00:42:49.051Z,0
2019-03-22T00:43:50.450Z,0
2019-03-22T00:44:52.137Z,0
2019-03-22T00:45:53.531Z,0
2019-03-22T00:46:55.018Z,0
2019-03-22T00:47:56.414Z,0
2019-03-22T00:48:57.807Z,0
2019-03-22T00:49:59.341Z,0
2019-03-22T00:51:00.736Z,0
2019-03-22T00:52:02.138Z,0
2019-03-22T00:53:03.669Z,0
2019-03-22T00:54:05.068Z,0
2019-03-22T00:55:06.467Z,0
2019-03-22T00:56:07.982Z,0
2019-03-22T00:57:09.379Z,0
2019-03-22T00:58:10.774Z,0
2019-03-22T00:59:12.304Z,0
2019-03-22T01:00:13.700Z,0
2019-03-22T01:01:15.096Z,0
2019-03-22T01:02:16.625Z,0
2019-03-22T01:03:18.019Z,0
2019-03-22T01:04:19.412Z,0
2019-03-22T01:05:20.957Z,0
2019-03-22T01:06:22.341Z,0
2019-03-22T01:07:23.827Z,0
2019-03-22T01:08:25.224Z,0
2019-03-22T01:09:26.709Z,0
2019-03-22T01:10:28.109Z,0
2019-03-22T01:11:29.589Z,0
2019-03-22T01:12:30.987Z,0
2019-03-22T01:13:32.380Z,0
2019-03-22T01:14:33.909Z,0
2019-03-22T01:15:35.305Z,0
2019-03-22T01:16:36.702Z,0
2019-03-22T01:17:38.242Z,0
2019-03-22T01:18:39.628Z,0
2019-03-22T01:19:41.025Z,0
2019-03-22T01:20:42.555Z,0
2019-03-22T01:21:43.971Z,0
2019-03-22T01:22:45.371Z,0
2019-03-22T01:23:46.881Z,0
2019-03-22T01:24:48.273Z,0
2019-03-22T01:25:49.758Z,0
2019-03-22T01:26:51.149Z,0
2019-03-22T01:27:52.639Z,0
2019-03-22T01:28:54.045Z,0
2019-03-22T01:29:55.437Z,0
2019-03-22T01:30:56.963Z,0
2019-03-22T01:31:58.368Z,0
2019-03-22T01:32:59.760Z,0
2019-03-22T01:34:01.279Z,0
2019-03-22T01:35:02.677Z,0
2019-03-22T01:36:04.071Z,0
2019-03-22T01:37:05.633Z,0
2019-03-22T01:38:07.012Z,0
2019-03-22T01:39:08.395Z,0
2019-03-22T01:40:09.923Z,0
2019-03-22T01:41:11.319Z,0
2019-03-22T01:42:12.805Z,0
2019-03-22T01:43:14.201Z,0
2019-03-22T01:44:15.889Z,0
2019-03-22T01:45:17.286Z,0
2019-03-22T01:46:18.974Z,0
2019-03-22T01:47:20.371Z,0
2019-03-22T01:48:21.856Z,0
2019-03-22T01:49:23.250Z,0
2019-03-22T01:50:24.741Z,0
2019-03-22T01:51:26.135Z,0
2019-03-22T01:52:27.824Z,0
2019-03-22T01:53:29.221Z,0
2019-03-22T01:54:30.628Z,0
2019-03-22T01:55:32.147Z,0
2019-03-22T01:56:33.549Z,0
2019-03-22T01:57:34.946Z,0
2019-03-22T01:58:36.464Z,0
2019-03-22T01:59:37.865Z,0
2019-03-22T02:00:39.256Z,0
2019-03-22T02:01:40.790Z,0
2019-03-22T02:02:42.189Z,0
2019-03-22T02:03:43.872Z,0
2019-03-22T02:04:45.267Z,0
2019-03-22T02:05:46.753Z,0
2019-03-22T02:06:48.149Z,0
2019-03-22T02:07:49.633Z,0
2019-03-22T02:08:51.029Z,0
2019-03-22T02:09:52.421Z,0
2019-03-22T02:10:53.958Z,0
2019-03-22T02:11:55.356Z,0
2019-03-22T02:12:56.752Z,0
2019-03-22T02:13:58.276Z,0
2019-03-22T02:14:59.671Z,0
2019-03-22T02:16:01.066Z,0
2019-03-22T02:17:02.604Z,0
2019-03-22T02:18:04.001Z,0
2019-03-22T02:19:05.398Z,0
2019-03-22T02:20:06.918Z,0
2019-03-22T02:21:08.314Z,0
2019-03-22T02:22:09.712Z,0
2019-03-22T02:23:11.243Z,0
2019-03-22T02:24:12.640Z,0
2019-03-22T02:25:14.045Z,0
2019-03-22T02:26:15.565Z,0
2019-03-22T02:27:16.964Z,0
2019-03-22T02:28:18.369Z,0
2019-03-22T02:29:19.885Z,0
2019-03-22T02:30:21.282Z,0
2019-03-22T02:31:22.684Z,0
2019-03-22T02:32:24.211Z,0
2019-03-22T02:33:25.610Z,0
2019-03-22T02:34:27.003Z,0
2019-03-22T02:35:29.527Z,0
2019-03-22T02:36:29.886Z,0
2019-03-22T02:37:31.282Z,0
2019-03-22T02:38:32.850Z,0
2019-03-22T02:39:34.375Z,0
2019-03-22T02:40:35.608Z,0
2019-03-22T02:41:37.173Z,0
2019-03-22T02:42:38.566Z,0
2019-03-22T02:43:40.049Z,0
2019-03-22T02:44:41.453Z,0
2019-03-22T02:45:42.850Z,0
2019-03-22T02:46:44.374Z,0
2019-03-22T02:47:45.789Z,0
2019-03-22T02:48:47.185Z,0
2019-03-22T02:49:48.694Z,0
2019-03-22T02:50:50.098Z,0
2019-03-22T02:51:51.493Z,0
2019-03-22T02:52:53.015Z,0
2019-03-22T02:53:54.432Z,0
2019-03-22T02:54:55.825Z,0
2019-03-22T02:55:57.415Z,0
2019-03-22T02:56:58.713Z,0
2019-03-22T02:58:00.096Z,0
2019-03-22T02:59:01.662Z,0
2019-03-22T03:00:03.056Z,0
2019-03-22T03:01:04.452Z,0
2019-03-22T03:02:05.980Z,0
2019-03-22T03:03:07.374Z,0
2019-03-22T03:04:08.766Z,0
2019-03-22T03:05:10.319Z,0
2019-03-22T03:06:11.699Z,0
2019-03-22T03:07:13.091Z,0
2019-03-22T03:08:14.642Z,0
2019-03-22T03:09:16.019Z,0
2019-03-22T03:10:17.423Z,0
2019-03-22T03:11:18.876Z,0
2019-03-22T03:12:20.276Z,0
2019-03-22T03:13:21.823Z,0
2019-03-22T03:14:23.217Z,0
2019-03-22T03:15:24.702Z,0
2019-03-22T03:16:26.106Z,0
2019-03-22T03:17:27.497Z,0
2019-03-22T03:18:28.963Z,0
2019-03-22T03:19:30.363Z,0
2019-03-22T03:20:31.771Z,0
2019-03-22T03:21:33.346Z,0
2019-03-22T03:22:34.742Z,0
2019-03-22T03:23:36.227Z,0
2019-03-22T03:24:37.625Z,0
2019-03-22T03:25:39.108Z,0
2019-03-22T03:26:40.511Z,0
2019-03-22T03:27:42.000Z,0
2019-03-22T03:28:43.395Z,0
2019-03-22T03:29:44.870Z,0
2019-03-22T03:30:46.298Z,0
2019-03-22T03:31:47.664Z,0
2019-03-22T03:32:49.294Z,0
2019-03-22T03:33:50.808Z,0
2019-03-22T03:34:52.194Z,0
2019-03-22T03:35:53.717Z,0
2019-03-22T03:36:55.139Z,0
2019-03-22T03:37:56.817Z,0
2019-03-22T03:38:58.224Z,0
2019-03-22T03:39:59.891Z,0
2019-03-22T03:41:01.309Z,0
2019-03-22T03:42:02.771Z,0
2019-03-22T03:43:04.220Z,0
2019-03-22T03:44:05.857Z,0
2019-03-22T03:45:07.257Z,0
2019-03-22T03:46:08.650Z,0
2019-03-22T03:47:10.560Z,0
2019-03-22T03:48:11.583Z,0
2019-03-22T03:49:12.929Z,0
2019-03-22T03:50:14.507Z,0
2019-03-22T03:51:15.914Z,0
2019-03-22T03:52:17.536Z,0
2019-03-22T03:53:18.931Z,0
2019-03-22T03:54:20.467Z,0
2019-03-22T03:55:21.867Z,0
2019-03-22T03:56:23.261Z,0
2019-03-22T03:57:24.786Z,0
2019-03-22T03:58:26.183Z,0
2019-03-22T03:59:27.607Z,0
2019-03-22T04:00:29.108Z,0
2019-03-22T04:01:30.501Z,0
2019-03-22T04:02:32.003Z,0
2019-03-22T04:03:33.382Z,0
2019-03-22T04:04:34.872Z,0
2019-03-22T04:05:36.277Z,0
2019-03-22T04:06:37.661Z,0
2019-03-22T04:07:39.191Z,0
2019-03-22T04:08:40.589Z,0
2019-03-22T04:09:41.983Z,0
2019-03-22T04:10:43.510Z,0
2019-03-22T04:11:44.910Z,0
2019-03-22T04:12:46.305Z,0
2019-03-22T04:13:47.838Z,0
2019-03-22T04:14:49.228Z,0
2019-03-22T04:15:50.623Z,0
2019-03-22T04:16:52.157Z,0
2019-03-22T04:17:53.651Z,0
2019-03-22T04:18:55.037Z,0
2019-03-22T04:19:56.432Z,0
2019-03-22T04:20:57.923Z,0
2019-03-22T04:21:59.317Z,0
2019-03-22T04:23:00.798Z,0
2019-03-22T04:24:02.204Z,0
2019-03-22T04:25:03.681Z,0
2019-03-22T04:26:05.071Z,0
2019-03-22T04:27:06.564Z,0
2019-03-22T04:28:08.035Z,0
2019-03-22T04:29:09.447Z,0
2019-03-22T04:30:10.908Z,0
2019-03-22T04:31:12.322Z,0
2019-03-22T04:32:13.785Z,0
2019-03-22T04:33:15.176Z,0
2019-03-22T04:34:16.642Z,0
2019-03-22T04:35:18.049Z,0
2019-03-22T04:36:19.446Z,0
2019-03-22T04:37:20.964Z,0
2019-03-22T04:38:22.360Z,0
2019-03-22T04:39:23.753Z,0
2019-03-22T04:40:25.390Z,0
2019-03-22T04:41:26.782Z,0
2019-03-22T04:42:28.180Z,0
2019-03-22T04:43:29.812Z,0
2019-03-22T04:44:31.203Z,0
2019-03-22T04:45:32.670Z,0
2019-03-22T04:46:34.338Z,0
2019-03-22T04:47:35.733Z,0
2019-03-22T04:48:37.154Z,0
2019-03-22T04:49:38.657Z,0
2019-03-22T04:50:40.056Z,0
2019-03-22T04:51:41.446Z,0
2019-03-22T04:52:42.979Z,0
2019-03-22T04:53:44.381Z,0
2019-03-22T04:54:45.787Z,0
2019-03-22T04:55:47.372Z,0
2019-03-22T04:56:48.769Z,0
2019-03-22T04:57:50.167Z,0
2019-03-22T04:58:51.829Z,0
2019-03-22T04:59:53.222Z,0
2019-03-22T05:00:54.621Z,0
2019-03-22T05:01:56.200Z,0
2019-03-22T05:02:57.612Z,0
2019-03-22T05:03:59.414Z,0
2019-03-22T05:05:00.597Z,0
2019-03-22T05:06:02.117Z,0
2019-03-22T05:07:03.507Z,0
2019-03-22T05:08:05.173Z,0
2019-03-22T05:09:06.504Z,0
2019-03-22T05:10:08.081Z,0
2019-03-22T05:11:09.477Z,0
2019-03-22T05:12:10.964Z,0
2019-03-22T05:13:12.355Z,0
2019-03-22T05:14:14.604Z,0
2019-03-22T05:15:15.965Z,0
2019-03-22T05:16:17.603Z,0
2019-03-22T05:17:19.005Z,0
2019-03-22T05:18:20.400Z,0
2019-03-22T05:19:22.071Z,0
2019-03-22T05:20:23.463Z,0
2019-03-22T05:21:24.865Z,0
2019-03-22T05:22:26.392Z,0
2019-03-22T05:23:27.788Z,0
2019-03-22T05:24:29.183Z,0
2019-03-22T05:25:30.874Z,0
2019-03-22T05:26:32.270Z,0
2019-03-22T05:27:33.699Z,0
2019-03-22T05:28:35.241Z,0
2019-03-22T05:29:38.746Z,0
2019-03-22T05:30:37.937Z,0
2019-03-22T05:31:39.507Z,0
2019-03-22T05:32:40.914Z,0
2019-03-22T05:33:42.297Z,5
2019-03-22T05:34:43.827Z,5
2019-03-22T05:35:45.223Z,5
2019-03-22T05:36:46.619Z,5
2019-03-22T05:37:48.154Z,5
2019-03-22T05:38:49.550Z,5
2019-03-22T05:39:50.942Z,5
2019-03-22T05:40:52.476Z,5
2019-03-22T05:41:53.866Z,10
2019-03-22T05:42:55.265Z,10
2019-03-22T05:43:56.798Z,10
2019-03-22T05:44:58.203Z,10
2019-03-22T05:45:59.600Z,10
2019-03-22T05:47:01.116Z,10
2019-03-22T05:48:02.515Z,10
2019-03-22T05:49:03.910Z,10
2019-03-22T05:50:05.438Z,10
2019-03-22T05:51:06.839Z,15
2019-03-22T05:52:08.234Z,15
2019-03-22T05:53:09.759Z,15
2019-03-22T05:54:11.160Z,15
2019-03-22T05:55:12.553Z,15
2019-03-22T05:56:14.126Z,15
2019-03-22T05:57:15.475Z,20
2019-03-22T05:58:16.873Z,20
2019-03-22T05:59:18.404Z,20
2019-03-22T06:00:19.801Z,20
2019-03-22T06:01:21.282Z,20
2019-03-22T06:02:22.681Z,20
2019-03-22T06:03:24.076Z,20
2019-03-22T06:04:25.605Z,20
2019-03-22T06:05:26.997Z,20
2019-03-22T06:06:28.393Z,20
2019-03-22T06:07:29.926Z,20
2019-03-22T06:08:31.328Z,25
2019-03-22T06:09:32.806Z,25
2019-03-22T06:10:34.210Z,25
2019-03-22T06:11:35.688Z,25
2019-03-22T06:12:37.084Z,25
2019-03-22T06:13:38.477Z,30
2019-03-22T06:14:40.010Z,30
2019-03-22T06:15:41.409Z,30
2019-03-22T06:16:42.802Z,30
2019-03-22T06:17:51.742Z,30
2019-03-22T06:18:45.693Z,30
2019-03-22T06:19:47.212Z,35
2019-03-22T06:20:48.615Z,35
2019-03-22T06:21:50.095Z,35
2019-03-22T06:22:51.491Z,35
2019-03-22T06:23:52.975Z,35
2019-03-22T06:24:54.369Z,35
2019-03-22T06:25:55.856Z,40
2019-03-22T06:26:57.256Z,40
2019-03-22T06:27:58.737Z,45
2019-03-22T06:29:00.149Z,45
2019-03-22T06:30:01.544Z,45
2019-03-22T06:31:03.060Z,45
2019-03-22T06:32:04.459Z,45
2019-03-22T06:33:05.852Z,50
2019-03-22T06:34:07.379Z,45
2019-03-22T06:35:08.782Z,50
2019-03-22T06:36:10.266Z,55
2019-03-22T06:37:11.659Z,55
2019-03-22T06:38:13.058Z,55
2019-03-22T06:39:14.583Z,55
2019-03-22T06:40:15.983Z,55
2019-03-22T06:41:17.375Z,55
2019-03-22T06:42:18.904Z,55
2019-03-22T06:43:20.310Z,55
2019-03-22T06:44:21.706Z,55
2019-03-22T06:45:23.279Z,60
2019-03-22T06:46:24.671Z,65
2019-03-22T06:47:26.158Z,70
2019-03-22T06:48:27.561Z,75
2019-03-22T06:49:28.959Z,85
2019-03-22T06:50:30.430Z,100
2019-03-22T06:51:31.832Z,100
2019-03-22T06:52:33.240Z,100
2019-03-22T06:53:34.753Z,85
2019-03-22T06:54:36.152Z,95
2019-03-22T06:55:37.632Z,90
2019-03-22T06:56:39.036Z,105
2019-03-22T06:57:40.515Z,110
2019-03-22T06:58:41.916Z,105
2019-03-22T06:59:43.368Z,90
2019-03-22T07:00:44.837Z,75
2019-03-22T07:01:46.237Z,95
2019-03-22T07:02:47.637Z,95
2019-03-22T07:03:49.212Z,95
2019-03-22T07:04:50.646Z,95
2019-03-22T07:05:52.292Z,100
2019-03-22T07:06:53.695Z,100
2019-03-22T07:07:55.173Z,100
2019-03-22T07:08:56.576Z,105
2019-03-22T07:09:57.976Z,120
2019-03-22T07:10:59.521Z,125
2019-03-22T07:12:00.927Z,120
2019-03-22T07:13:02.324Z,125
2019-03-22T07:14:03.818Z,120
2019-03-22T07:15:05.224Z,120
2019-03-22T07:16:06.618Z,120
2019-03-22T07:17:08.091Z,120
2019-03-22T07:18:09.494Z,115
2019-03-22T07:19:10.891Z,125
2019-03-22T07:20:12.460Z,125
2019-03-22T07:21:13.864Z,125
2019-03-22T07:22:15.292Z,120
2019-03-22T07:23:16.797Z,120
2019-03-22T07:24:18.218Z,115
2019-03-22T07:25:19.868Z,130
2019-03-22T07:26:21.294Z,135
2019-03-22T07:27:22.680Z,145
2019-03-22T07:28:24.189Z,140
2019-03-22T07:29:25.613Z,140
2019-03-22T07:30:27.075Z,135
2019-03-22T07:31:28.469Z,140
2019-03-22T07:32:29.950Z,140
2019-03-22T07:33:31.356Z,140
2019-03-22T07:34:32.763Z,140
2019-03-22T07:35:34.275Z,145
2019-03-22T07:36:35.679Z,160
2019-03-22T07:37:37.079Z,150
2019-03-22T07:38:38.594Z,145
2019-03-22T07:39:39.995Z,130
2019-03-22T07:40:41.400Z,140
2019-03-22T07:41:42.914Z,150
2019-03-22T07:42:44.316Z,155
2019-03-22T07:43:45.721Z,155
2019-03-22T07:44:47.239Z,160
2019-03-22T07:45:48.641Z,170
2019-03-22T07:46:50.044Z,180
2019-03-22T07:47:51.556Z,185
2019-03-22T07:48:52.964Z,185
2019-03-22T07:49:54.365Z,190
2019-03-22T07:50:55.891Z,185
2019-03-22T07:51:57.355Z,180
2019-03-22T07:52:58.971Z,180
2019-03-22T07:54:00.370Z,175
2019-03-22T07:55:01.776Z,175
2019-03-22T07:56:03.282Z,170
2019-03-22T07:57:04.696Z,170
2019-03-22T07:58:06.096Z,160
2019-03-22T07:59:09.749Z,160
2019-03-22T08:00:08.983Z,145
2019-03-22T08:01:10.390Z,150
2019-03-22T08:02:12.133Z,155
2019-03-22T08:03:13.564Z,155
2019-03-22T08:04:15.042Z,150
2019-03-22T08:05:16.452Z,155
2019-03-22T08:06:17.853Z,165
2019-03-22T08:07:19.337Z,175
2019-03-22T08:08:20.751Z,180
2019-03-22T08:09:22.216Z,185
2019-03-22T08:10:23.621Z,180
2019-03-22T08:11:25.151Z,185
2019-03-22T08:12:26.497Z,185
2019-03-22T08:13:28.008Z,185
2019-03-22T08:14:29.379Z,180
2019-03-22T08:15:30.791Z,185
2019-03-22T08:16:32.346Z,185
2019-03-22T08:17:33.736Z,180
2019-03-22T08:18:35.171Z,180
2019-03-22T08:19:36.840Z,170
2019-03-22T08:20:38.894Z,165
2019-03-22T08:21:39.592Z,185
2019-03-22T08:22:41.200Z,190
2019-03-22T08:23:42.604Z,190
2019-03-22T08:24:44.010Z,190
2019-03-22T08:25:45.672Z,185
2019-03-22T08:26:47.081Z,185
2019-03-22T08:27:48.556Z,185
2019-03-22T08:28:50.009Z,195
2019-03-22T08:29:51.439Z,205
2019-03-22T08:30:52.882Z,205
2019-03-22T08:31:54.294Z,205
2019-03-22T08:32:56.510Z,220
2019-03-22T08:33:58.058Z,225
2019-03-22T08:34:59.758Z,235
2019-03-22T08:36:01.208Z,240
2019-03-22T08:37:02.609Z,245
2019-03-22T08:38:04.085Z,230
2019-03-22T08:39:05.495Z,225
2019-03-22T08:40:06.899Z,230
2019-03-22T08:41:08.442Z,230
2019-03-22T08:42:09.880Z,245
2019-03-22T08:43:11.253Z,250
2019-03-22T08:44:12.873Z,240
2019-03-22T08:45:14.263Z,245
2019-03-22T08:46:15.716Z,260
2019-03-22T08:47:17.122Z,260
2019-03-22T08:48:18.606Z,265
2019-03-22T08:49:20.187Z,275
2019-03-22T08:50:21.425Z,270
2019-03-22T08:51:22.935Z,265
2019-03-22T08:52:24.341Z,275
2019-03-22T08:53:25.759Z,295
2019-03-22T08:54:27.259Z,305
2019-03-22T08:55:28.659Z,320
2019-03-22T08:56:30.124Z,340
2019-03-22T08:57:31.785Z,345
2019-03-22T08:58:33.168Z,350
2019-03-22T08:59:34.574Z,350
2019-03-22T09:00:39.545Z,350
2019-03-22T09:01:37.496Z,355
2019-03-22T09:02:38.964Z,355
2019-03-22T09:03:40.395Z,355
2019-03-22T09:04:41.843Z,355
2019-03-22T09:05:43.259Z,355
2019-03-22T09:06:44.668Z,355
2019-03-22T09:07:46.163Z,360
2019-03-22T09:08:48.026Z,365
2019-03-22T09:09:48.996Z,350
2019-03-22T09:10:50.485Z,355
2019-03-22T09:11:51.890Z,360
2019-03-22T09:12:53.300Z,355
2019-03-22T09:13:54.806Z,365
2019-03-22T09:14:56.219Z,370
2019-03-22T09:15:57.655Z,390
2019-03-22T09:16:59.129Z,395
2019-03-22T09:18:00.535Z,395
2019-03-22T09:19:02.030Z,400
2019-03-22T09:20:03.429Z,410
2019-03-22T09:21:04.888Z,405
2019-03-22T09:22:06.550Z,410
2019-03-22T09:23:07.964Z,410
2019-03-22T09:24:09.413Z,415
2019-03-22T09:25:10.878Z,425
2019-03-22T09:26:12.266Z,425
2019-03-22T09:27:13.682Z,440
2019-03-22T09:28:15.200Z,450
2019-03-22T09:29:16.636Z,455
2019-03-22T09:30:17.995Z,455
2019-03-22T09:31:19.515Z,455
2019-03-22T09:32:20.948Z,450
2019-03-22T09:33:22.382Z,440
2019-03-22T09:34:33.086Z,420
2019-03-22T09:35:25.162Z,420
2019-03-22T09:36:26.704Z,435
2019-03-22T09:37:28.123Z,435
2019-03-22T09:38:29.580Z,405
2019-03-22T09:39:31.236Z,435
2019-03-22T09:40:32.638Z,470
2019-03-22T09:41:34.070Z,470
2019-03-22T09:42:35.555Z,445
2019-03-22T09:43:36.962Z,455
2019-03-22T09:44:43.341Z,480
2019-03-22T09:45:39.850Z,465
2019-03-22T09:46:41.235Z,445
2019-03-22T09:47:42.756Z,555
2019-03-22T09:48:44.163Z,570
2019-03-22T09:49:45.571Z,710
2019-03-22T09:50:47.079Z,795
2019-03-22T09:51:48.482Z,815
2019-03-22T09:52:49.958Z,815
2019-03-22T09:53:51.327Z,760
2019-03-22T09:54:52.841Z,550
2019-03-22T09:55:54.247Z,470
2019-03-22T09:56:55.892Z,585
2019-03-22T09:57:57.157Z,840
2019-03-22T09:58:58.641Z,655
2019-03-22T10:00:00.071Z,785
2019-03-22T10:01:01.482Z,845
2019-03-22T10:02:03.196Z,705
2019-03-22T10:03:04.542Z,680
2019-03-22T10:04:05.962Z,900
2019-03-22T10:05:07.454Z,1140
2019-03-22T10:06:08.855Z,1130
2019-03-22T10:07:10.382Z,1015
2019-03-22T10:08:11.733Z,810
2019-03-22T10:09:13.207Z,745
2019-03-22T10:10:14.617Z,880
2019-03-22T10:11:16.072Z,925
2019-03-22T10:12:17.471Z,1005
2019-03-22T10:13:18.994Z,1090
2019-03-22T10:14:21.351Z,1110
2019-03-22T10:15:21.851Z,1070
2019-03-22T10:16:23.284Z,930
2019-03-22T10:17:24.705Z,870
2019-03-22T10:18:26.224Z,925
2019-03-22T10:19:27.650Z,890
2019-03-22T10:20:29.193Z,920
2019-03-22T10:21:30.464Z,1005
2019-03-22T10:22:31.874Z,985
2019-03-22T10:23:33.414Z,950
2019-03-22T10:24:34.797Z,915
2019-03-22T10:25:36.295Z,900
2019-03-22T10:26:37.696Z,815
2019-03-22T10:27:39.373Z,630
2019-03-22T10:28:40.757Z,530
2019-03-22T10:29:42.224Z,635
2019-03-22T10:30:43.630Z,785
2019-03-22T10:31:45.112Z,795
2019-03-22T10:32:46.548Z,720
2019-03-22T10:33:47.956Z,765
2019-03-22T10:34:49.372Z,805
2019-03-22T10:35:50.896Z,810
2019-03-22T10:36:52.826Z,810
2019-03-22T10:38:00.487Z,815
2019-03-22T10:38:55.719Z,825
2019-03-22T10:39:57.213Z,820
2019-03-22T10:40:58.622Z,835
2019-03-22T10:42:00.095Z,805
2019-03-22T10:43:01.587Z,695
2019-03-22T10:44:02.991Z,545
2019-03-22T10:45:04.376Z,375
2019-03-22T10:46:07.818Z,335
2019-03-22T10:47:07.292Z,310
2019-03-22T10:48:08.730Z,295
2019-03-22T10:49:10.165Z,285
2019-03-22T10:50:11.682Z,265
2019-03-22T10:51:13.099Z,250
2019-03-22T10:52:14.556Z,230
2019-03-22T10:53:16.140Z,220
2019-03-22T10:54:17.551Z,195
2019-03-22T10:55:29.717Z,185
2019-03-22T10:56:20.461Z,175
2019-03-22T10:57:21.871Z,170
2019-03-22T10:58:23.372Z,170
2019-03-22T10:59:24.988Z,165
2019-03-22T11:00:26.397Z,160
2019-03-22T11:01:27.804Z,155
2019-03-22T11:02:29.310Z,150
2019-03-22T11:03:30.758Z,145
2019-03-22T11:04:32.123Z,140
2019-03-22T11:05:33.662Z,135
2019-03-22T11:06:35.066Z,135
2019-03-22T11:07:36.471Z,135
2019-03-22T11:08:37.981Z,130
2019-03-22T11:09:39.388Z,130
2019-03-22T11:10:40.800Z,135
2019-03-22T11:11:42.304Z,130
2019-03-22T11:12:43.729Z,130
2019-03-22T11:13:45.182Z,130
2019-03-22T11:14:46.700Z,130
2019-03-22T11:15:48.787Z,130
2019-03-22T11:16:49.646Z,130
2019-03-22T11:17:51.124Z,135
2019-03-22T11:18:52.535Z,135
2019-03-22T11:19:54.030Z,130
2019-03-22T11:21:04.489Z,130
2019-03-22T11:21:56.914Z,130
2019-03-22T11:22:58.325Z,130
2019-03-22T11:23:59.794Z,130
2019-03-22T11:25:01.203Z,130
2019-03-22T11:26:04.424Z,130
2019-03-22T11:27:04.110Z,130
2019-03-22T11:28:05.554Z,125
2019-03-22T11:29:06.958Z,125
2019-03-22T11:30:08.435Z,125
2019-03-22T11:31:09.847Z,125
2019-03-22T11:32:12.822Z,125
2019-03-22T11:33:12.760Z,125
2019-03-22T11:34:14.171Z,125
2019-03-22T11:35:15.573Z,125
2019-03-22T11:36:17.078Z,125
2019-03-22T11:37:18.489Z,125
2019-03-22T11:38:19.968Z,125
2019-03-22T11:39:21.368Z,125
2019-03-22T11:40:22.843Z,130
2019-03-22T11:41:24.247Z,130
2019-03-22T11:42:25.652Z,120
2019-03-22T11:43:27.162Z,120
2019-03-22T11:44:28.569Z,120
2019-03-22T11:45:29.977Z,120
2019-03-22T11:46:31.482Z,120
2019-03-22T11:47:32.894Z,120
2019-03-22T11:48:34.364Z,120
2019-03-22T11:49:35.767Z,120
2019-03-22T11:50:37.256Z,120
2019-03-22T11:51:40.192Z,120
2019-03-22T11:52:40.035Z,115
2019-03-22T11:53:41.543Z,115
2019-03-22T11:54:42.950Z,115
2019-03-22T11:55:44.355Z,115
2019-03-22T11:56:45.892Z,115
2019-03-22T11:57:47.985Z,115
2019-03-22T11:58:48.676Z,115
2019-03-22T11:59:50.210Z,115
2019-03-22T12:00:51.620Z,115
2019-03-22T12:01:53.022Z,115
2019-03-22T12:02:54.535Z,115
2019-03-22T12:03:55.936Z,115
2019-03-22T12:04:57.341Z,115
2019-03-22T12:05:58.853Z,110
2019-03-22T12:07:00.261Z,110
2019-03-22T12:08:01.667Z,110
2019-03-22T12:09:03.175Z,110
2019-03-22T12:10:04.582Z,110
2019-03-22T12:11:06.059Z,110
2019-03-22T12:12:07.463Z,110
2019-03-22T12:13:08.870Z,110
2019-03-22T12:14:10.379Z,110
2019-03-22T12:15:11.788Z,110
2019-03-22T12:16:13.193Z,105
2019-03-22T12:17:14.698Z,105
2019-03-22T12:18:16.104Z,105
2019-03-22T12:19:17.507Z,105
2019-03-22T12:20:19.025Z,105
2019-03-22T12:21:20.425Z,105
2019-03-22T12:22:21.833Z,105
2019-03-22T12:23:23.343Z,105
2019-03-22T12:24:24.747Z,105
2019-03-22T12:25:26.224Z,105
2019-03-22T12:26:27.632Z,100
2019-03-22T12:27:36.259Z,100
2019-03-22T12:28:30.536Z,100
2019-03-22T12:29:31.953Z,100
2019-03-22T12:30:33.352Z,100
2019-03-22T12:31:34.863Z,100
2019-03-22T12:32:36.270Z,100
2019-03-22T12:33:37.671Z,100
2019-03-22T12:34:39.185Z,105
2019-03-22T12:35:42.475Z,110
2019-03-22T12:36:42.045Z,110
2019-03-22T12:37:43.450Z,110
2019-03-22T12:38:44.926Z,110
2019-03-22T12:39:46.344Z,110
2019-03-22T12:40:47.827Z,110
2019-03-22T12:41:49.237Z,110
2019-03-22T12:42:50.648Z,110
2019-03-22T12:43:52.128Z,105
2019-03-22T12:44:53.533Z,105
2019-03-22T12:45:54.961Z,105
2019-03-22T12:46:56.548Z,105
2019-03-22T12:47:57.947Z,105
2019-03-22T12:48:59.351Z,105
2019-03-22T12:50:01.000Z,105
2019-03-22T12:51:02.407Z,105
2019-03-22T12:52:03.808Z,105
2019-03-22T12:53:05.341Z,100
2019-03-22T12:54:06.747Z,100
2019-03-22T12:55:08.202Z,100
2019-03-22T12:56:09.608Z,105
2019-03-22T12:57:11.080Z,105
2019-03-22T12:58:12.490Z,100
2019-03-22T12:59:13.966Z,95
2019-03-22T13:00:15.364Z,95
2019-03-22T13:01:16.840Z,95
2019-03-22T13:02:18.258Z,100
2019-03-22T13:03:19.724Z,100
2019-03-22T13:04:21.132Z,100
2019-03-22T13:05:22.604Z,100
2019-03-22T13:06:24.018Z,100
2019-03-22T13:07:25.490Z,100
2019-03-22T13:08:26.894Z,100
2019-03-22T13:09:28.296Z,95
2019-03-22T13:10:29.808Z,95
2019-03-22T13:11:31.227Z,95
2019-03-22T13:12:32.636Z,100
2019-03-22T13:13:34.123Z,95
2019-03-22T13:14:35.529Z,95
2019-03-22T13:15:37.011Z,90
2019-03-22T13:16:38.410Z,90
2019-03-22T13:17:39.890Z,90
2019-03-22T13:18:49.859Z,90
2019-03-22T13:19:42.668Z,90
2019-03-22T13:20:44.210Z,85
2019-03-22T13:21:45.616Z,85
2019-03-22T13:22:47.017Z,85
2019-03-22T13:23:48.516Z,85
2019-03-22T13:24:49.917Z,85
2019-03-22T13:25:51.413Z,80
2019-03-22T13:26:52.811Z,80
2019-03-22T13:27:54.282Z,80
2019-03-22T13:28:55.683Z,80
2019-03-22T13:29:57.173Z,80
2019-03-22T13:30:58.576Z,75
2019-03-22T13:32:00.117Z,75
2019-03-22T13:33:01.523Z,75
2019-03-22T13:34:03.139Z,75
2019-03-22T13:35:04.544Z,75
2019-03-22T13:36:06.020Z,75
2019-03-22T13:37:07.430Z,75
2019-03-22T13:38:08.899Z,75
2019-03-22T13:39:10.308Z,75
2019-03-22T13:40:11.709Z,75
2019-03-22T13:41:13.220Z,75
2019-03-22T13:42:14.723Z,75
2019-03-22T13:43:16.130Z,75
2019-03-22T13:44:17.751Z,75
2019-03-22T13:45:19.151Z,70
2019-03-22T13:46:20.622Z,70
2019-03-22T13:47:22.034Z,70
2019-03-22T13:48:23.729Z,70
2019-03-22T13:49:25.385Z,70
2019-03-22T13:50:26.992Z,70
2019-03-22T13:51:28.436Z,70
2019-03-22T13:52:29.903Z,65
2019-03-22T13:53:31.372Z,65
2019-03-22T13:54:33.036Z,65
2019-03-22T13:55:34.904Z,65
2019-03-22T13:56:36.498Z,65
2019-03-22T13:57:38.352Z,65
2019-03-22T13:58:39.943Z,65
2019-03-22T13:59:41.665Z,65
2019-03-22T14:00:43.241Z,60
2019-03-22T14:01:44.906Z,60
2019-03-22T14:02:46.520Z,60
2019-03-22T14:03:48.208Z,60
2019-03-22T14:04:50.286Z,60
2019-03-22T14:05:52.109Z,60
2019-03-22T14:06:53.726Z,60
2019-03-22T14:07:55.372Z,60
2019-03-22T14:08:57.013Z,60
2019-03-22T14:09:58.732Z,60
2019-03-22T14:11:00.407Z,60
2019-03-22T14:12:02.205Z,60
2019-03-22T14:13:03.779Z,60
2019-03-22T14:14:05.473Z,60
2019-03-22T14:15:07.108Z,55
2019-03-22T14:16:08.809Z,55
2019-03-22T14:17:10.395Z,55
2019-03-22T14:18:12.034Z,55
2019-03-22T14:19:13.648Z,55
2019-03-22T14:20:15.384Z,55
2019-03-22T14:21:16.974Z,55
2019-03-22T14:22:18.529Z,55
2019-03-22T14:23:20.128Z,55
2019-03-22T14:24:21.963Z,55
2019-03-22T14:25:23.603Z,55
2019-03-22T14:26:25.444Z,55
2019-03-22T14:27:26.878Z,55
2019-03-22T14:28:28.581Z,50
2019-03-22T14:29:30.043Z,50
2019-03-22T14:30:31.689Z,50
2019-03-22T14:31:33.474Z,50
2019-03-22T14:32:35.087Z,50
2019-03-22T14:33:36.665Z,50
2019-03-22T14:34:38.371Z,50
2019-03-22T14:35:40.051Z,50